createdAt,value
2022-11-15T00:01:16.551Z,97525.00
2022-11-15T00:03:44.282Z,97525.00
2022-11-15T00:06:10.650Z,97525.81
2022-11-15T00:08:37.062Z,97518.88
2022-11-15T00:11:03.954Z,97521.31
2022-11-15T00:13:31.133Z,97519.97
2022-11-15T00:15:57.922Z,97507.97
2022-11-15T00:18:24.322Z,97511.56
2022-11-15T00:20:52.046Z,97512.63
2022-11-15T00:23:18.400Z,97516.63
2022-11-15T00:25:44.747Z,97515.53
2022-11-15T00:28:11.141Z,97514.22
2022-11-15T00:30:37.534Z,97513.03
2022-11-15T00:33:04.289Z,97512.75
2022-11-15T00:35:32.127Z,97512.22
2022-11-15T00:38:01.069Z,97512.22
2022-11-15T00:40:27.641Z,97511.91
2022-11-15T00:42:54.093Z,97517.69
2022-11-15T00:45:20.434Z,97505.94
2022-11-15T00:47:46.826Z,97499.31
2022-11-15T00:50:15.294Z,97492.44
2022-11-15T00:52:42.167Z,97500.06
2022-11-15T00:55:14.057Z,97494.59
2022-11-15T00:57:40.406Z,97493.00
2022-11-15T01:00:07.429Z,97481.78
2022-11-15T01:02:33.925Z,97485.59
2022-11-15T01:05:00.294Z,97480.66
2022-11-15T01:07:26.748Z,97480.66
2022-11-15T01:09:53.157Z,97480.06
2022-11-15T01:12:20.861Z,97474.22
2022-11-15T01:14:47.234Z,97464.88
2022-11-15T01:17:13.592Z,97472.84
2022-11-15T01:19:39.968Z,97469.53
2022-11-15T01:22:06.308Z,97468.47
2022-11-15T01:24:32.693Z,97468.38
2022-11-15T01:26:59.047Z,97468.59
2022-11-15T01:29:26.790Z,97473.69
2022-11-15T01:31:53.878Z,97465.78
2022-11-15T01:34:20.245Z,97467.94
2022-11-15T01:36:46.601Z,97465.63
2022-11-15T01:39:12.962Z,97464.81
2022-11-15T01:41:39.293Z,97461.34
2022-11-15T01:44:24.387Z,97462.16
2022-11-15T01:46:52.107Z,97465.25
2022-11-15T01:49:20.360Z,97453.25
2022-11-15T01:51:46.732Z,97456.16
2022-11-15T01:54:16.157Z,97442.28
2022-11-15T01:56:45.750Z,97445.34
2022-11-15T01:59:12.586Z,97445.34
2022-11-15T02:01:39.148Z,97440.97
2022-11-15T02:04:09.572Z,97434.16
2022-11-15T02:06:36.638Z,97432.59
2022-11-15T02:09:03.682Z,97424.72
2022-11-15T02:11:30.246Z,97423.84
2022-11-15T02:13:57.601Z,97422.13
2022-11-15T02:16:28.639Z,97412.53
2022-11-15T02:18:58.770Z,97421.03
2022-11-15T02:21:31.009Z,97408.25
2022-11-15T02:24:08.069Z,97403.19
2022-11-15T02:26:47.089Z,97405.38
2022-11-15T02:29:16.591Z,97406.38
2022-11-15T02:31:49.494Z,97398.63
2022-11-15T02:34:21.551Z,97410.13
2022-11-15T02:36:50.501Z,97407.41
2022-11-15T02:39:20.957Z,97402.66
2022-11-15T02:41:48.893Z,97404.47
2022-11-15T02:44:19.634Z,97404.91
2022-11-15T02:46:50.802Z,97391.38
2022-11-15T02:49:17.468Z,97401.47
2022-11-15T02:51:45.394Z,97392.41
2022-11-15T02:54:13.114Z,97392.28
2022-11-15T02:56:39.537Z,97387.78
2022-11-15T02:59:20.176Z,97394.53
2022-11-15T03:01:55.742Z,97388.75
2022-11-15T03:04:29.682Z,97384.06
2022-11-15T03:07:01.894Z,97381.47
2022-11-15T03:09:34.360Z,97386.53
2022-11-15T03:12:04.809Z,97381.00
2022-11-15T03:14:35.489Z,97377.94
2022-11-15T03:17:06.183Z,97378.41
2022-11-15T03:19:35.281Z,97378.16
2022-11-15T03:22:04.589Z,97379.63
2022-11-15T03:24:34.302Z,97378.91
2022-11-15T03:27:02.914Z,97378.84
2022-11-15T03:29:33.322Z,97387.34
2022-11-15T03:32:01.658Z,97380.81
2022-11-15T03:34:32.290Z,97379.91
2022-11-15T03:36:58.695Z,97375.53
2022-11-15T03:39:26.245Z,97374.34
2022-11-15T03:41:57.998Z,97372.28
2022-11-15T03:44:32.304Z,97378.94
2022-11-15T03:47:01.531Z,97370.06
2022-11-15T03:49:32.045Z,97371.19
2022-11-15T03:51:59.030Z,97371.53
2022-11-15T03:54:25.528Z,97377.56
2022-11-15T03:56:51.882Z,97377.22
2022-11-15T03:59:18.247Z,97371.88
2022-11-15T04:01:44.582Z,97370.63
2022-11-15T04:04:10.937Z,97360.56
2022-11-15T04:06:38.804Z,97364.28
2022-11-15T04:09:05.227Z,97369.63
2022-11-15T04:11:31.567Z,97361.31
2022-11-15T04:13:57.931Z,97359.66
2022-11-15T04:16:24.266Z,97356.94
2022-11-15T04:18:50.645Z,97347.25
2022-11-15T04:21:17.111Z,97349.81
2022-11-15T04:23:44.847Z,97349.50
2022-11-15T04:26:12.443Z,97335.72
2022-11-15T04:28:38.889Z,97334.72
2022-11-15T04:31:05.429Z,97331.59
2022-11-15T04:33:32.038Z,97331.16
2022-11-15T04:35:58.602Z,97322.69
2022-11-15T04:38:24.972Z,97324.34
2022-11-15T04:40:52.902Z,97322.53
2022-11-15T04:43:19.275Z,97329.88
2022-11-15T04:45:45.605Z,97328.56
2022-11-15T04:48:11.962Z,97335.13
2022-11-15T04:50:38.344Z,97333.50
2022-11-15T04:53:04.721Z,97337.28
2022-11-15T04:55:31.088Z,97340.19
2022-11-15T04:58:02.270Z,97344.22
2022-11-15T05:00:29.242Z,97337.38
2022-11-15T05:02:55.628Z,97338.66
2022-11-15T05:05:22.009Z,97339.19
2022-11-15T05:07:48.336Z,97337.47
2022-11-15T05:10:14.700Z,97333.66
2022-11-15T05:12:41.046Z,97328.56
2022-11-15T05:15:09.397Z,97332.22
2022-11-15T05:17:35.898Z,97326.50
2022-11-15T05:20:02.265Z,97325.44
2022-11-15T05:22:28.614Z,97326.50
2022-11-15T05:24:54.995Z,97326.91
2022-11-15T05:27:21.331Z,97318.50
2022-11-15T05:29:47.683Z,97316.50
2022-11-15T05:32:16.381Z,97305.63
2022-11-15T05:34:42.790Z,97307.03
2022-11-15T05:37:09.133Z,97306.00
2022-11-15T05:39:35.548Z,97310.53
2022-11-15T05:42:05.252Z,97311.94
2022-11-15T05:44:32.191Z,97305.78
2022-11-15T05:46:59.031Z,97308.13
2022-11-15T05:49:29.803Z,97303.25
2022-11-15T05:51:57.244Z,97301.28
2022-11-15T05:54:24.258Z,97291.94
2022-11-15T05:56:50.684Z,97294.81
2022-11-15T05:59:17.762Z,97306.94
2022-11-15T06:01:44.207Z,97307.59
2022-11-15T06:04:10.633Z,97310.22
2022-11-15T06:06:38.336Z,97305.97
2022-11-15T06:09:04.697Z,97306.03
2022-11-15T06:11:31.035Z,97311.25
2022-11-15T06:13:57.414Z,97314.97
2022-11-15T06:16:23.753Z,97312.06
2022-11-15T06:18:50.114Z,97302.59
2022-11-15T06:21:16.438Z,97306.44
2022-11-15T06:23:44.169Z,97304.41
2022-11-15T06:26:10.598Z,97296.25
2022-11-15T06:28:36.965Z,97301.59
2022-11-15T06:31:03.959Z,97294.91
2022-11-15T06:33:30.590Z,97297.47
2022-11-15T06:36:00.397Z,97290.78
2022-11-15T06:38:27.252Z,97290.16
2022-11-15T06:40:55.004Z,97278.59
2022-11-15T06:43:21.385Z,97282.53
2022-11-15T06:45:47.718Z,97274.66
2022-11-15T06:48:15.140Z,97271.53
2022-11-15T06:50:41.478Z,97274.88
2022-11-15T06:53:07.828Z,97274.22
2022-11-15T06:55:34.180Z,97282.22
2022-11-15T06:58:01.890Z,97280.38
2022-11-15T07:00:28.237Z,97282.84
2022-11-15T07:02:54.596Z,97296.50
2022-11-15T07:05:20.953Z,97307.13
2022-11-15T07:07:51.865Z,97312.22
2022-11-15T07:10:18.204Z,97325.34
2022-11-15T07:12:47.456Z,97319.59
2022-11-15T07:15:15.293Z,97320.56
2022-11-15T07:17:41.676Z,97323.34
2022-11-15T07:20:08.477Z,97317.59
2022-11-15T07:22:34.821Z,97312.88
2022-11-15T07:25:01.167Z,97311.47
2022-11-15T07:27:27.914Z,97318.75
2022-11-15T07:29:54.414Z,97317.50
2022-11-15T07:32:22.126Z,97323.03
2022-11-15T07:34:48.510Z,97312.53
2022-11-15T07:37:14.853Z,97309.81
2022-11-15T07:39:41.203Z,97301.44
2022-11-15T07:42:07.545Z,97302.88
2022-11-15T07:44:33.887Z,97304.00
2022-11-15T07:47:00.228Z,97303.44
2022-11-15T07:49:27.953Z,97303.25
2022-11-15T07:51:54.321Z,97302.09
2022-11-15T07:54:20.682Z,97292.34
2022-11-15T07:56:47.010Z,97298.41
2022-11-15T07:59:13.360Z,97297.72
2022-11-15T08:01:39.890Z,97299.88
2022-11-15T08:04:06.348Z,97300.41
2022-11-15T08:06:34.074Z,97299.25
2022-11-15T08:09:00.529Z,97290.19
2022-11-15T08:11:26.889Z,97291.69
2022-11-15T08:13:53.246Z,97291.19
2022-11-15T08:16:19.587Z,97289.28
2022-11-15T08:18:46.040Z,97281.16
2022-11-15T08:21:18.324Z,97279.91
2022-11-15T08:23:46.541Z,97274.22
2022-11-15T08:26:12.953Z,97274.81
2022-11-15T08:28:39.496Z,97266.72
2022-11-15T08:31:05.892Z,97267.56
2022-11-15T08:33:33.055Z,97265.50
2022-11-15T08:36:00.039Z,97267.72
2022-11-15T08:38:26.432Z,97265.38
2022-11-15T08:41:00.829Z,97254.69
2022-11-15T08:43:27.204Z,97262.72
2022-11-15T08:45:56.278Z,97253.47
2022-11-15T08:48:22.730Z,97253.03
2022-11-15T08:50:49.069Z,97262.66
2022-11-15T08:53:15.424Z,97256.16
2022-11-15T08:55:42.000Z,97256.47
2022-11-15T08:58:09.709Z,97264.38
2022-11-15T09:00:36.121Z,97257.31
2022-11-15T09:03:04.596Z,97260.06
2022-11-15T09:05:30.926Z,97261.16
2022-11-15T09:07:57.336Z,97262.56
2022-11-15T09:10:23.788Z,97252.97
2022-11-15T09:12:50.183Z,97249.16
2022-11-15T09:15:17.911Z,97249.41
2022-11-15T09:17:44.267Z,97245.84
2022-11-15T09:20:11.130Z,97233.81
2022-11-15T09:22:37.476Z,97236.28
2022-11-15T09:25:07.301Z,97230.28
2022-11-15T09:27:36.553Z,97222.03
2022-11-15T09:30:03.106Z,97224.75
2022-11-15T09:32:36.308Z,97215.16
2022-11-15T09:35:05.597Z,97216.03
2022-11-15T09:37:32.511Z,97207.81
2022-11-15T09:39:58.855Z,97207.81
2022-11-15T09:42:31.896Z,97207.00
2022-11-15T09:45:05.394Z,97208.38
2022-11-15T09:47:55.948Z,97207.81
2022-11-15T09:50:29.723Z,97193.88
2022-11-15T09:52:57.245Z,97191.13
2022-11-15T09:55:30.345Z,97191.97
2022-11-15T09:57:59.893Z,97194.94
2022-11-15T10:00:46.050Z,97185.91
2022-11-15T10:03:15.750Z,97178.22
2022-11-15T10:05:43.077Z,97180.13
2022-11-15T10:08:21.519Z,97177.13
2022-11-15T10:10:49.421Z,97178.50
2022-11-15T10:13:20.890Z,97177.88
2022-11-15T10:15:47.586Z,97171.31
2022-11-15T10:18:20.418Z,97160.31
2022-11-15T10:20:48.777Z,97164.66
2022-11-15T10:23:16.534Z,97164.91
2022-11-15T10:25:42.908Z,97158.34
2022-11-15T10:28:12.703Z,97157.75
2022-11-15T10:30:40.443Z,97144.31
2022-11-15T10:33:24.708Z,97139.63
2022-11-15T10:36:14.681Z,97133.59
2022-11-15T10:38:51.958Z,97130.56
2022-11-15T10:41:19.173Z,97120.91
2022-11-15T10:43:45.931Z,97119.25
2022-11-15T10:46:44.915Z,97113.19
2022-11-15T10:49:14.178Z,97106.56
2022-11-15T10:51:43.764Z,97109.53
2022-11-15T10:54:13.753Z,97088.38
2022-11-15T10:56:43.197Z,97083.44
2022-11-15T10:59:16.887Z,97076.53
2022-11-15T11:01:46.957Z,97065.78
2022-11-15T11:04:13.380Z,97061.88
2022-11-15T11:06:48.565Z,97046.66
2022-11-15T11:09:23.732Z,97050.69
2022-11-15T11:11:52.886Z,97037.16
2022-11-15T11:14:21.735Z,97038.19
2022-11-15T11:16:50.063Z,97036.75
2022-11-15T11:19:25.961Z,97025.13
2022-11-15T11:21:58.422Z,97025.03
2022-11-15T11:24:32.143Z,97018.00
2022-11-15T11:27:04.849Z,97017.34
2022-11-15T11:29:37.914Z,97022.13
2022-11-15T11:32:11.329Z,97010.53
2022-11-15T11:34:45.768Z,97023.09
2022-11-15T11:37:15.653Z,97008.03
2022-11-15T11:39:46.291Z,97001.25
2022-11-15T11:42:17.840Z,97000.97
2022-11-15T11:44:52.985Z,96998.63
2022-11-15T11:47:22.178Z,96989.19
2022-11-15T11:49:51.326Z,96987.69
2022-11-15T11:52:22.926Z,96979.56
2022-11-15T11:54:55.228Z,96971.28
2022-11-15T11:57:25.937Z,96968.97
2022-11-15T11:59:54.240Z,96967.78
2022-11-15T12:02:26.080Z,96963.47
2022-11-15T12:04:53.860Z,96966.97
2022-11-15T12:07:32.085Z,96960.50
2022-11-15T12:10:00.545Z,96960.41
2022-11-15T12:12:31.214Z,96953.56
2022-11-15T12:15:00.173Z,96956.63
2022-11-15T12:17:28.023Z,96949.97
2022-11-15T12:19:57.240Z,96950.78
2022-11-15T12:22:37.754Z,96944.44
2022-11-15T12:25:07.225Z,96939.31
2022-11-15T12:27:36.967Z,96936.25
2022-11-15T12:30:04.762Z,96930.13
2022-11-15T12:32:32.772Z,96922.47
2022-11-15T12:35:00.019Z,96922.28
2022-11-15T12:37:50.229Z,96922.28
2022-11-15T12:40:20.231Z,96918.56
2022-11-15T12:42:58.132Z,96912.44
2022-11-15T12:45:25.985Z,96910.19
2022-11-15T12:47:52.410Z,96902.53
2022-11-15T12:50:42.829Z,96902.94
2022-11-15T12:53:28.382Z,96910.59
2022-11-15T12:58:49.725Z,96896.88
2022-11-15T13:01:34.871Z,96887.34
2022-11-15T13:04:22.263Z,96881.47
2022-11-15T13:06:49.897Z,96881.13
2022-11-15T13:09:34.615Z,96885.19
2022-11-15T13:12:01.196Z,96881.69
2022-11-15T13:14:43.009Z,96885.25
2022-11-15T13:17:23.270Z,96880.09
2022-11-15T13:19:53.860Z,96876.28
2022-11-15T13:22:20.292Z,96877.09
2022-11-15T13:24:46.639Z,96880.38
2022-11-15T13:27:16.729Z,96881.00
2022-11-15T13:29:44.997Z,96872.72
2022-11-15T13:32:12.414Z,96880.38
2022-11-15T13:34:54.086Z,96876.09
2022-11-15T13:37:30.984Z,96876.25
2022-11-15T13:40:10.716Z,96879.47
2022-11-15T13:42:40.548Z,96885.63
2022-11-15T13:45:16.004Z,96884.22
2022-11-15T13:47:42.388Z,96886.22
2022-11-15T13:50:12.519Z,96881.47
2022-11-15T13:52:40.367Z,96876.16
2022-11-15T13:55:11.816Z,96875.47
2022-11-15T13:57:42.674Z,96878.31
2022-11-15T14:00:25.676Z,96868.41
2022-11-15T14:02:52.498Z,96872.09
2022-11-15T14:05:20.262Z,96852.78
2022-11-15T14:07:53.748Z,96854.31
2022-11-15T14:10:26.012Z,96859.03
2022-11-15T14:12:52.577Z,96854.94
2022-11-15T14:15:28.337Z,96856.59
2022-11-15T14:17:54.719Z,96860.28
2022-11-15T14:20:27.092Z,96852.72
2022-11-15T14:22:54.055Z,96841.09
2022-11-15T14:25:21.560Z,96841.25
2022-11-15T14:28:02.786Z,96837.41
2022-11-15T14:30:30.511Z,96835.19
2022-11-15T14:32:56.879Z,96836.41
2022-11-15T14:35:23.916Z,96827.22
2022-11-15T14:37:50.648Z,96834.47
2022-11-15T14:40:19.072Z,96829.88
2022-11-15T14:42:46.297Z,96820.31
2022-11-15T14:45:13.544Z,96811.94
2022-11-15T14:47:41.400Z,96809.09
2022-11-15T14:50:11.597Z,96808.59
2022-11-15T14:52:37.966Z,96802.16
2022-11-15T14:55:11.153Z,96796.03
2022-11-15T14:57:37.518Z,96795.31
2022-11-15T15:00:04.400Z,96795.59
2022-11-15T15:02:30.995Z,96787.44
2022-11-15T15:04:58.732Z,96786.63
2022-11-15T15:07:25.164Z,96788.28
2022-11-15T15:09:51.564Z,96785.63
2022-11-15T15:12:18.901Z,96781.22
2022-11-15T15:14:45.595Z,96780.44
2022-11-15T15:17:11.968Z,96777.31
2022-11-15T15:19:38.821Z,96775.72
2022-11-15T15:22:06.658Z,96768.22
2022-11-15T15:24:33.021Z,96767.28
2022-11-15T15:26:59.381Z,96766.78
2022-11-15T15:29:25.761Z,96774.72
2022-11-15T15:31:52.115Z,96782.66
2022-11-15T15:34:18.460Z,96778.81
2022-11-15T15:36:44.784Z,96778.72
2022-11-15T15:39:12.577Z,96774.94
2022-11-15T15:41:38.911Z,96773.09
2022-11-15T15:44:05.305Z,96771.41
2022-11-15T15:46:31.652Z,96775.22
2022-11-15T15:48:57.996Z,96777.63
2022-11-15T15:51:24.328Z,96779.22
2022-11-15T15:53:50.697Z,96775.69
2022-11-15T15:56:18.400Z,96773.94
2022-11-15T15:58:44.748Z,96766.84
2022-11-15T16:01:11.130Z,96769.31
2022-11-15T16:03:37.569Z,96771.34
2022-11-15T16:06:04.021Z,96774.09
2022-11-15T16:08:42.661Z,96778.00
2022-11-15T16:11:18.079Z,96771.94
2022-11-15T16:13:44.606Z,96768.91
2022-11-15T16:16:13.578Z,96763.25
2022-11-15T16:18:39.935Z,96767.06
2022-11-15T16:21:06.260Z,96764.00
2022-11-15T16:23:32.632Z,96763.53
2022-11-15T16:25:58.978Z,96758.44
2022-11-15T16:28:27.789Z,96761.28
2022-11-15T16:31:00.488Z,96760.22
2022-11-15T16:33:26.830Z,96763.22
2022-11-15T16:35:53.305Z,96765.28
2022-11-15T16:38:19.643Z,96768.84
2022-11-15T16:40:46.040Z,96772.13
2022-11-15T16:43:12.539Z,96773.50
2022-11-15T16:45:40.276Z,96777.34
2022-11-15T16:48:06.877Z,96771.63
2022-11-15T16:50:33.948Z,96772.97
2022-11-15T16:53:00.968Z,96776.28
2022-11-15T16:55:27.770Z,96773.31
2022-11-15T16:57:54.300Z,96765.91
2022-11-15T17:00:21.289Z,96770.06
2022-11-15T17:02:49.536Z,96777.00
2022-11-15T17:05:20.031Z,96778.19
2022-11-15T17:07:47.370Z,96784.00
2022-11-15T17:10:13.757Z,96772.78
2022-11-15T17:12:40.090Z,96779.63
2022-11-15T17:15:06.810Z,96767.22
2022-11-15T17:17:33.284Z,96775.25
2022-11-15T17:20:00.979Z,96780.72
2022-11-15T17:22:27.324Z,96781.28
2022-11-15T17:24:53.699Z,96784.03
2022-11-15T17:27:20.025Z,96787.84
2022-11-15T17:29:46.377Z,96790.59
2022-11-15T17:32:12.708Z,96781.91
2022-11-15T17:34:39.054Z,96778.94
2022-11-15T17:37:07.049Z,96784.41
2022-11-15T17:39:33.382Z,96771.56
2022-11-15T17:41:59.711Z,96776.81
2022-11-15T17:44:26.044Z,96770.78
2022-11-15T17:46:52.407Z,96768.63
2022-11-15T17:49:18.774Z,96762.97
2022-11-15T17:51:48.837Z,96761.56
2022-11-15T17:54:17.734Z,96761.13
2022-11-15T17:56:44.111Z,96765.47
2022-11-15T17:59:14.761Z,96768.44
2022-11-15T18:01:42.359Z,96753.13
2022-11-15T18:04:09.368Z,96751.72
2022-11-15T18:06:36.238Z,96742.41
2022-11-15T18:09:03.891Z,96743.56
2022-11-15T18:11:32.162Z,96745.75
2022-11-15T18:13:59.823Z,96738.09
2022-11-15T18:16:27.085Z,96738.41
2022-11-15T18:18:53.698Z,96743.09
2022-11-15T18:21:20.749Z,96741.41
2022-11-15T18:23:47.740Z,96743.66
2022-11-15T18:26:15.188Z,96740.13
2022-11-15T18:28:43.493Z,96738.19
2022-11-15T18:31:13.090Z,96736.25
2022-11-15T18:33:39.427Z,96726.41
2022-11-15T18:36:07.453Z,96728.06
2022-11-15T18:38:34.027Z,96733.81
2022-11-15T18:41:05.350Z,96735.72
2022-11-15T18:43:31.908Z,96729.91
2022-11-15T18:46:03.216Z,96726.13
2022-11-15T18:48:29.964Z,96728.88
2022-11-15T18:51:04.767Z,96720.13
2022-11-15T18:53:32.389Z,96715.50
2022-11-15T18:56:00.356Z,96711.41
2022-11-15T18:58:28.683Z,96711.94
2022-11-15T19:00:59.902Z,96716.63
2022-11-15T19:03:30.632Z,96722.06
2022-11-15T19:06:00.685Z,96720.69
2022-11-15T19:08:28.704Z,96720.13
2022-11-15T19:11:02.183Z,96723.16
2022-11-15T19:13:28.948Z,96725.66
2022-11-15T19:15:56.942Z,96711.16
2022-11-15T19:18:23.277Z,96707.34
2022-11-15T19:20:50.965Z,96701.56
2022-11-15T19:23:17.343Z,96706.47
2022-11-15T19:25:43.706Z,96713.56
2022-11-15T19:28:10.078Z,96720.66
2022-11-15T19:30:36.400Z,96723.41
2022-11-15T19:33:02.775Z,96730.56
2022-11-15T19:35:29.121Z,96732.47
2022-11-15T19:37:56.840Z,96713.03
2022-11-15T19:40:23.166Z,96712.69
2022-11-15T19:42:49.512Z,96706.38
2022-11-15T19:45:15.849Z,96692.97
2022-11-15T19:47:42.195Z,96686.13
2022-11-15T19:50:08.987Z,96689.94
2022-11-15T19:52:35.325Z,96679.00
2022-11-15T19:55:03.154Z,96679.59
2022-11-15T19:57:29.525Z,96676.88
2022-11-15T19:59:55.848Z,96665.38
2022-11-15T20:02:22.218Z,96672.69
2022-11-15T20:04:48.610Z,96668.91
2022-11-15T20:07:15.007Z,96679.47
2022-11-15T20:09:41.363Z,96670.34
2022-11-15T20:12:09.122Z,96674.31
2022-11-15T20:14:35.483Z,96678.13
2022-11-15T20:17:01.858Z,96676.50
2022-11-15T20:19:28.214Z,96672.75
2022-11-15T20:21:54.581Z,96668.16
2022-11-15T20:24:21.073Z,96672.16
2022-11-15T20:26:47.451Z,96679.25
2022-11-15T20:29:15.297Z,96681.22
2022-11-15T20:31:41.662Z,96667.59
2022-11-15T20:34:08.152Z,96680.75
2022-11-15T20:36:34.492Z,96679.13
2022-11-15T20:39:00.973Z,96677.16
2022-11-15T20:41:27.572Z,96674.78
2022-11-15T20:43:53.942Z,96684.88
2022-11-15T20:46:21.641Z,96670.66
2022-11-15T20:48:48.025Z,96675.00
2022-11-15T20:51:15.347Z,96662.19
2022-11-15T20:53:41.907Z,96660.25
2022-11-15T20:56:10.395Z,96652.03
2022-11-15T20:58:37.223Z,96645.47
2022-11-15T21:01:04.281Z,96640.56
2022-11-15T21:03:32.159Z,96639.78
2022-11-15T21:05:58.490Z,96633.78
2022-11-15T21:08:24.859Z,96622.88
2022-11-15T21:10:51.945Z,96626.69
2022-11-15T21:13:18.341Z,96634.03
2022-11-15T21:15:44.682Z,96630.19
2022-11-15T21:18:11.057Z,96626.91
2022-11-15T21:20:38.802Z,96626.91
2022-11-15T21:23:05.200Z,96617.28
2022-11-15T21:25:32.437Z,96609.31
2022-11-15T21:27:58.800Z,96608.75
2022-11-15T21:30:25.723Z,96596.78
2022-11-15T21:32:52.087Z,96599.22
2022-11-15T21:35:18.448Z,96601.28
2022-11-15T21:37:46.179Z,96595.25
2022-11-15T21:40:12.770Z,96605.19
2022-11-15T21:42:39.109Z,96605.09
2022-11-15T21:45:06.206Z,96608.66
2022-11-15T21:47:32.537Z,96604.69
2022-11-15T21:49:58.905Z,96612.72
2022-11-15T21:52:25.390Z,96596.06
2022-11-15T21:54:53.100Z,96586.28
2022-11-15T21:57:19.481Z,96587.69
2022-11-15T21:59:45.844Z,96579.28
2022-11-15T22:02:12.187Z,96602.25
2022-11-15T22:04:38.566Z,96599.97
2022-11-15T22:07:04.960Z,96596.94
2022-11-15T22:09:31.326Z,96588.97
2022-11-15T22:11:59.023Z,96580.22
2022-11-15T22:14:25.397Z,96569.03
2022-11-15T22:16:51.744Z,96583.31
2022-11-15T22:19:18.084Z,96573.50
2022-11-15T22:21:44.452Z,96575.13
2022-11-15T22:24:10.823Z,96562.59
2022-11-15T22:26:37.167Z,96559.91
2022-11-15T22:29:04.885Z,96556.84
2022-11-15T22:31:31.222Z,96550.00
2022-11-15T22:33:57.576Z,96547.03
2022-11-15T22:36:28.444Z,96554.72
2022-11-15T22:38:59.332Z,96539.19
2022-11-15T22:41:25.670Z,96532.09
2022-11-15T22:43:52.065Z,96539.19
2022-11-15T22:46:19.775Z,96532.34
2022-11-15T22:48:46.121Z,96541.13
2022-11-15T22:51:12.479Z,96534.19
2022-11-15T22:53:51.114Z,96518.13
2022-11-15T22:56:20.242Z,96517.28
2022-11-15T22:58:46.804Z,96509.88
2022-11-15T23:01:18.574Z,96502.03
2022-11-15T23:03:46.321Z,96503.34
2022-11-15T23:06:12.699Z,96493.88
2022-11-15T23:08:39.253Z,96498.78
2022-11-15T23:11:05.900Z,96498.53
2022-11-15T23:13:32.985Z,96505.31
2022-11-15T23:16:03.426Z,96492.97
2022-11-15T23:18:32.736Z,96493.09
2022-11-15T23:21:07.123Z,96491.19
2022-11-15T23:23:34.523Z,96487.09
2022-11-15T23:26:01.089Z,96481.44
2022-11-15T23:28:27.461Z,96478.69
2022-11-15T23:30:53.973Z,96490.22
2022-11-15T23:33:20.375Z,96494.63
2022-11-15T23:35:53.171Z,96492.13
2022-11-15T23:38:20.889Z,96487.50
2022-11-15T23:40:50.891Z,96478.00
2022-11-15T23:43:17.220Z,96474.50
2022-11-15T23:45:43.580Z,96464.84
2022-11-15T23:48:09.950Z,96460.53
2022-11-15T23:50:36.505Z,96464.97
2022-11-15T23:53:02.896Z,96472.84
2022-11-15T23:55:30.681Z,96483.47
2022-11-15T23:57:57.194Z,96481.13
